Time;durP1;ratioP1;P1;durP2;ratioP2;P2;SDS_P1;SDS_P2;PMS_P1;PMS_P2;Temp;Humidity;BMP_temperature;BMP_pressure;BME280_temperature;BME280_humidity;BME280_pressure;Samples;Min_cycle;Max_cycle;Signal;HPM_P1;HPM_P2
2023/12/01 00:02:13;;;;;;;19.55;6.40;;;;;;;;;;5067843;27;20130;-59
2023/12/01 00:04:39;;;;;;;21.55;7.15;;;;;;;;;;5107462;27;20048;-60
2023/12/01 00:07:06;;;;;;;18.35;6.53;;;;;;;;;;5079943;28;20052;-59
2023/12/01 00:09:33;;;;;;;19.10;6.35;;;;;;;;;;5077032;28;20040;-60
2023/12/01 00:12:02;;;;;;;18.88;6.68;;;;;;;;;;5073364;28;20071;-60
2023/12/01 00:14:29;;;;;;;22.73;7.40;;;;;;;;;;5078538;28;20136;-60
2023/12/01 00:16:55;;;;;;;16.85;6.28;;;;;;;;;;5067987;28;20040;-60
2023/12/01 00:19:22;;;;;;;21.55;6.55;;;;;;;;;;5062320;28;20040;-60
2023/12/01 00:21:49;;;;;;;18.15;6.13;;;;;;;;;;5065174;28;20051;-60
2023/12/01 00:24:15;;;;;;;16.95;5.82;;;;;;;;;;5054780;28;20046;-59
2023/12/01 00:26:43;;;;;;;19.67;6.60;;;;;;;;;;5073907;28;20122;-59
2023/12/01 00:29:11;;;;;;;19.65;6.25;;;;;;;;;;5069076;28;20079;-59
2023/12/01 00:31:38;;;;;;;;;;;;;;;;;;5065780;28;20075;-59
2023/12/01 00:34:05;;;;;;;19.40;6.18;;;;;;;;;;5075629;28;19967;-60
2023/12/01 00:36:32;;;;;;;18.85;6.82;;;;;;;;;;5061174;28;20083;-60
2023/12/01 00:38:59;;;;;;;22.40;6.50;;;;;;;;;;5061457;28;20055;-59
2023/12/01 00:41:26;;;;;;;18.83;6.63;;;;;;;;;;5077445;28;20527;-59
2023/12/01 00:43:53;;;;;;;14.77;5.18;;;;;;;;;;5077497;28;20047;-60
2023/12/01 00:46:21;;;;;;;16.92;5.90;;;;;;;;;;5061112;28;20089;-60
2023/12/01 00:48:48;;;;;;;17.85;6.70;;;;;;;;;;5092437;28;20052;-59
2023/12/01 00:51:15;;;;;;;33.53;7.55;;;;;;;;;;5074686;28;20074;-59
2023/12/01 00:53:42;;;;;;;20.33;7.15;;;;;;;;;;5069488;28;20097;-59
2023/12/01 00:56:10;;;;;;;17.92;6.43;;;;;;;;;;5020140;28;20055;-61
2023/12/01 00:58:37;;;;;;;18.80;7.00;;;;;;;;;;5090891;28;20048;-60
2023/12/01 01:01:05;;;;;;;17.63;5.85;;;;;;;;;;5075858;28;20048;-60
2023/12/01 01:03:33;;;;;;;19.30;5.90;;;;;;;;;;5066713;28;20055;-60
2023/12/01 01:06:01;;;;;;;18.80;6.43;;;;;;;;;;5066821;28;20079;-59
2023/12/01 01:08:29;;;;;;;18.80;6.28;;;;;;;;;;5091250;28;20063;-60
2023/12/01 01:10:55;;;;;;;16.88;4.90;;;;;;;;;;5089615;28;20040;-60
2023/12/01 01:13:23;;;;;;;23.63;7.20;;;;;;;;;;5093630;28;20085;-60
2023/12/01 01:15:50;;;;;;;21.10;6.70;;;;;;;;;;5064861;28;20134;-60
2023/12/01 01:18:16;;;;;;;24.40;6.95;;;;;;;;;;5073892;28;20044;-60
2023/12/01 01:21:02;;;;;;;19.80;6.53;;;;;;;;;;5089925;28;20051;-59
2023/12/01 01:23:31;;;;;;;20.55;7.07;;;;;;;;;;5064958;28;20093;-59
2023/12/01 01:25:58;;;;;;;22.60;5.57;;;;;;;;;;5066199;28;20048;-59
2023/12/01 01:28:24;;;;;;;21.02;6.15;;;;;;;;;;5065652;28;20052;-59
2023/12/01 01:30:51;;;;;;;22.35;6.32;;;;;;;;;;5087720;28;20074;-59
2023/12/01 01:33:18;;;;;;;22.40;6.10;;;;;;;;;;5075471;28;20040;-60
2023/12/01 01:35:45;;;;;;;22.75;6.05;;;;;;;;;;5068816;28;20074;-59
2023/12/01 01:38:13;;;;;;;17.38;6.18;;;;;;;;;;5069100;28;20101;-60
2023/12/01 01:40:40;;;;;;;19.55;6.28;;;;;;;;;;5090758;28;20054;-61
2023/12/01 01:43:06;;;;;;;21.98;6.05;;;;;;;;;;5073596;28;20059;-62
2023/12/01 01:45:36;;;;;;;16.63;5.80;;;;;;;;;;5056607;27;20063;-59
2023/12/01 01:48:02;;;;;;;23.02;6.70;;;;;;;;;;5060551;28;20036;-61
2023/12/01 01:50:29;;;;;;;22.92;6.70;;;;;;;;;;5071232;28;20055;-61
2023/12/01 01:52:56;;;;;;;22.75;6.95;;;;;;;;;;5094483;28;20127;-60
2023/12/01 01:55:25;;;;;;;18.77;5.68;;;;;;;;;;5058845;28;20040;-60
2023/12/01 01:57:53;;;;;;;;;;;;;;;;;;5068580;28;20063;-60
2023/12/01 02:00:20;;;;;;;;;;;;;;;;;;5088928;28;20986;-59
2023/12/01 02:02:47;;;;;;;22.58;5.75;;;;;;;;;;5071880;28;19924;-60
2023/12/01 02:05:14;;;;;;;26.67;6.05;;;;;;;;;;5045941;28;20041;-61
2023/12/01 02:07:41;;;;;;;22.48;5.50;;;;;;;;;;5068266;28;20129;-61
2023/12/01 02:10:15;;;;;;;26.98;7.20;;;;;;;;;;5062930;28;20147;-59
2023/12/01 02:12:44;;;;;;;21.90;6.30;;;;;;;;;;5070042;28;20052;-60
2023/12/01 02:15:11;;;;;;;16.35;4.85;;;;;;;;;;5066298;28;20058;-60
2023/12/01 02:17:39;;;;;;;30.27;6.30;;;;;;;;;;5061500;28;20123;-59
2023/12/01 02:20:06;;;;;;;32.05;7.85;;;;;;;;;;5058528;28;20090;-61
2023/12/01 02:22:35;;;;;;;26.23;7.53;;;;;;;;;;5075117;28;20056;-60
2023/12/01 02:25:02;;;;;;;28.35;6.90;;;;;;;;;;5055524;28;20295;-60
2023/12/01 02:27:29;;;;;;;26.58;7.57;;;;;;;;;;5060653;28;20121;-60
2023/12/01 02:29:55;;;;;;;42.65;8.77;;;;;;;;;;5065216;28;20118;-60
2023/12/01 02:32:24;;;;;;;35.15;7.03;;;;;;;;;;5065135;28;20071;-60
2023/12/01 02:34:51;;;;;;;26.38;6.90;;;;;;;;;;5072282;28;20044;-60
2023/12/01 02:37:18;;;;;;;27.70;7.63;;;;;;;;;;5054761;28;20229;-60
2023/12/01 02:39:46;;;;;;;31.48;8.25;;;;;;;;;;5067305;28;20060;-60
2023/12/01 02:42:13;;;;;;;29.20;6.57;;;;;;;;;;5064271;28;20054;-59
2023/12/01 02:44:41;;;;;;;30.23;8.80;;;;;;;;;;5071375;28;20072;-60
2023/12/01 02:47:09;;;;;;;;;;;;;;;;;;5051098;28;20087;-59
2023/12/01 02:49:36;;;;;;;27.38;6.45;;;;;;;;;;5063379;28;19920;-60
2023/12/01 02:52:06;;;;;;;35.75;8.50;;;;;;;;;;5069992;28;20052;-60
2023/12/01 02:54:33;;;;;;;35.63;9.52;;;;;;;;;;5070043;28;20056;-59
2023/12/01 02:57:02;;;;;;;37.63;8.15;;;;;;;;;;5066150;28;20043;-60
2023/12/01 02:59:29;;;;;;;30.05;9.15;;;;;;;;;;5067993;28;20127;-64
2023/12/01 03:01:56;;;;;;;32.13;10.20;;;;;;;;;;5056441;28;20045;-61
2023/12/01 03:04:22;;;;;;;33.72;8.15;;;;;;;;;;5008808;28;20053;-60
2023/12/01 03:06:49;;;;;;;32.63;9.07;;;;;;;;;;5054508;28;20056;-62
2023/12/01 03:09:17;;;;;;;41.35;9.02;;;;;;;;;;5053260;28;20083;-60
2023/12/01 03:11:46;;;;;;;36.00;8.65;;;;;;;;;;5053916;28;20084;-58
2023/12/01 03:14:14;;;;;;;37.28;9.32;;;;;;;;;;5046655;28;20165;-59
2023/12/01 03:16:43;;;;;;;40.42;8.98;;;;;;;;;;5060846;28;20118;-60
2023/12/01 03:19:09;;;;;;;;;;;;;;;;;;5053574;28;20080;-59
2023/12/01 03:21:36;;;;;;;36.70;8.50;;;;;;;;;;5056680;28;19921;-58
2023/12/01 03:24:03;;;;;;;32.00;9.05;;;;;;;;;;5057415;28;20060;-60
2023/12/01 03:26:31;;;;;;;43.25;10.07;;;;;;;;;;5055513;28;20040;-59
2023/12/01 03:28:57;;;;;;;36.15;11.35;;;;;;;;;;5053696;28;20123;-59
2023/12/01 03:31:26;;;;;;;39.92;11.27;;;;;;;;;;5056088;28;20058;-62
2023/12/01 03:33:53;;;;;;;33.03;9.88;;;;;;;;;;5040146;28;20067;-61
2023/12/01 03:36:19;;;;;;;31.20;7.32;;;;;;;;;;5050056;28;20055;-59
2023/12/01 03:38:46;;;;;;;31.33;9.52;;;;;;;;;;5055014;28;20048;-59
2023/12/01 03:41:12;;;;;;;42.15;10.43;;;;;;;;;;5053744;28;20091;-60
2023/12/01 03:43:39;;;;;;;38.67;10.23;;;;;;;;;;5056943;28;20048;-61
2023/12/01 03:46:06;;;;;;;39.55;9.80;;;;;;;;;;5036553;28;20059;-61
2023/12/01 03:48:34;;;;;;;35.47;10.52;;;;;;;;;;5049831;28;20044;-59
2023/12/01 03:51:01;;;;;;;38.58;11.00;;;;;;;;;;5061050;28;20060;-59
2023/12/01 03:53:30;;;;;;;31.42;9.02;;;;;;;;;;5059700;28;20044;-60
2023/12/01 03:55:58;;;;;;;38.92;10.35;;;;;;;;;;5047315;28;20048;-59
2023/12/01 03:58:25;;;;;;;41.30;10.10;;;;;;;;;;5056983;28;20044;-60
2023/12/01 04:00:52;;;;;;;35.40;9.93;;;;;;;;;;5061493;28;20048;-59
2023/12/01 04:03:19;;;;;;;36.90;11.02;;;;;;;;;;5062599;28;20072;-59
2023/12/01 04:05:47;;;;;;;36.72;10.00;;;;;;;;;;5036034;27;20053;-60
2023/12/01 04:08:14;;;;;;;35.47;10.07;;;;;;;;;;5050323;28;20054;-61
2023/12/01 04:10:41;;;;;;;28.98;9.50;;;;;;;;;;5059666;28;20056;-59
2023/12/01 04:13:08;;;;;;;38.20;10.80;;;;;;;;;;5060655;28;20064;-59
2023/12/01 04:15:36;;;;;;;28.77;9.15;;;;;;;;;;5067597;28;20484;-61
2023/12/01 04:18:06;;;;;;;33.45;8.90;;;;;;;;;;5059309;28;20087;-59
2023/12/01 04:20:36;;;;;;;28.95;7.78;;;;;;;;;;5062077;28;20122;-59
2023/12/01 04:23:09;;;;;;;34.42;9.68;;;;;;;;;;5056175;28;20052;-59
2023/12/01 04:25:37;;;;;;;35.60;10.13;;;;;;;;;;5049916;28;20056;-60
2023/12/01 04:28:13;;;;;;;34.88;9.98;;;;;;;;;;5057539;28;20049;-61
2023/12/01 04:30:40;;;;;;;38.45;9.27;;;;;;;;;;5058172;28;20044;-61
2023/12/01 04:33:07;;;;;;;33.35;9.27;;;;;;;;;;5060738;28;20155;-60
2023/12/01 04:35:37;;;;;;;38.75;10.27;;;;;;;;;;5031818;28;20052;-60
2023/12/01 04:38:08;;;;;;;30.00;9.02;;;;;;;;;;5089143;28;20034;-61
2023/12/01 04:40:36;;;;;;;32.85;9.52;;;;;;;;;;5065161;28;20059;-60
2023/12/01 04:43:04;;;;;;;25.90;7.72;;;;;;;;;;5060416;28;20056;-60
2023/12/01 04:45:32;;;;;;;35.70;10.20;;;;;;;;;;5053288;28;20138;-61
2023/12/01 04:47:59;;;;;;;33.08;9.90;;;;;;;;;;5065463;28;20086;-61
2023/12/01 04:50:29;;;;;;;41.05;9.45;;;;;;;;;;5056499;28;20061;-61
2023/12/01 04:52:57;;;;;;;37.20;9.93;;;;;;;;;;5059966;28;20052;-62
2023/12/01 04:55:27;;;;;;;34.63;8.85;;;;;;;;;;5040098;28;20061;-60
2023/12/01 04:57:54;;;;;;;34.45;8.93;;;;;;;;;;5060090;28;20145;-62
2023/12/01 05:00:25;;;;;;;35.13;9.25;;;;;;;;;;5051425;28;23071;-63
2023/12/01 05:02:53;;;;;;;32.72;8.80;;;;;;;;;;5078819;27;20076;-61
2023/12/01 05:08:05;;;;;;;36.63;10.10;;;;;;;;;;5057725;28;20051;-61
2023/12/01 05:10:35;;;;;;;34.10;9.25;;;;;;;;;;5063681;28;20048;-58
2023/12/01 05:13:04;;;;;;;33.65;10.05;;;;;;;;;;5062920;28;20052;-58
2023/12/01 05:15:33;;;;;;;38.83;10.43;;;;;;;;;;5063233;28;20051;-59
2023/12/01 05:18:02;;;;;;;;;;;;;;;;;;5063600;28;20105;-59
2023/12/01 05:20:30;;;;;;;34.67;7.75;;;;;;;;;;5062790;28;19934;-59
2023/12/01 05:22:59;;;;;;;43.20;11.55;;;;;;;;;;5086437;28;20101;-59
2023/12/01 05:25:26;;;;;;;36.28;10.20;;;;;;;;;;5055420;28;20116;-59
2023/12/01 05:27:56;;;;;;;34.23;9.57;;;;;;;;;;5063326;28;20048;-60
2023/12/01 05:30:24;;;;;;;34.17;10.77;;;;;;;;;;5057443;28;20048;-59
2023/12/01 05:32:52;;;;;;;38.80;9.90;;;;;;;;;;5063416;28;20044;-59
2023/12/01 05:35:20;;;;;;;36.22;9.50;;;;;;;;;;4966196;28;20052;-60
2023/12/01 05:37:48;;;;;;;40.65;10.77;;;;;;;;;;5058411;28;20045;-63
2023/12/01 05:40:16;;;;;;;42.13;10.23;;;;;;;;;;5057358;28;20186;-59
2023/12/01 05:42:44;;;;;;;35.90;9.40;;;;;;;;;;5063480;28;20068;-60
2023/12/01 05:45:13;;;;;;;43.27;11.13;;;;;;;;;;5065330;28;20079;-59
2023/12/01 05:47:42;;;;;;;33.50;9.77;;;;;;;;;;5057774;28;20047;-60
2023/12/01 05:50:13;;;;;;;38.42;11.55;;;;;;;;;;5071680;28;20043;-59
2023/12/01 05:52:40;;;;;;;34.30;9.45;;;;;;;;;;5080626;28;20052;-60
2023/12/01 05:55:14;;;;;;;38.50;10.80;;;;;;;;;;5074799;27;20115;-59
2023/12/01 05:57:42;;;;;;;35.05;10.35;;;;;;;;;;5067071;28;20131;-59
2023/12/01 06:00:12;;;;;;;37.30;10.30;;;;;;;;;;5061363;28;20048;-59
2023/12/01 06:02:41;;;;;;;43.08;11.82;;;;;;;;;;5081460;28;20056;-59
2023/12/01 06:05:11;;;;;;;;;;;;;;;;;;5072443;27;20053;-60
2023/12/01 06:07:38;;;;;;;34.20;9.48;;;;;;;;;;5058563;28;19970;-60
2023/12/01 06:10:09;;;;;;;39.30;11.32;;;;;;;;;;5053306;28;20138;-60
2023/12/01 06:12:37;;;;;;;41.17;10.63;;;;;;;;;;5093447;27;20041;-59
2023/12/01 06:15:10;;;;;;;34.30;9.57;;;;;;;;;;5048557;27;20051;-61
2023/12/01 06:17:37;;;;;;;37.95;10.05;;;;;;;;;;5071454;28;20044;-61
2023/12/01 06:20:16;;;;;;;36.20;10.73;;;;;;;;;;5063507;28;20087;-61
2023/12/01 06:22:44;;;;;;;36.03;10.70;;;;;;;;;;5086966;28;20040;-59
2023/12/01 06:25:11;;;;;;;40.75;11.20;;;;;;;;;;5027005;28;20063;-60
2023/12/01 06:27:40;;;;;;;33.33;9.48;;;;;;;;;;5072829;28;20114;-60
2023/12/01 06:30:11;;;;;;;36.22;9.98;;;;;;;;;;5043652;28;20084;-60
2023/12/01 06:32:39;;;;;;;32.90;9.73;;;;;;;;;;5046437;28;20048;-59
2023/12/01 06:35:09;;;;;;;36.30;9.77;;;;;;;;;;5031222;28;20102;-60
2023/12/01 06:37:36;;;;;;;34.55;9.85;;;;;;;;;;5037997;28;20052;-60
2023/12/01 06:40:11;;;;;;;43.17;10.50;;;;;;;;;;5032847;28;20048;-61
2023/12/01 06:42:40;;;;;;;48.40;11.10;;;;;;;;;;5038877;28;20045;-59
2023/12/01 06:45:08;;;;;;;33.60;9.40;;;;;;;;;;5029560;28;20052;-60
2023/12/01 06:47:34;;;;;;;38.28;9.98;;;;;;;;;;5071508;28;20102;-60
2023/12/01 06:50:02;;;;;;;27.23;7.80;;;;;;;;;;5067825;28;20102;-60
2023/12/01 06:52:31;;;;;;;29.07;9.00;;;;;;;;;;5062589;28;20155;-60
2023/12/01 06:54:58;;;;;;;33.05;8.27;;;;;;;;;;5050222;28;20114;-59
2023/12/01 06:57:24;;;;;;;33.22;9.90;;;;;;;;;;5042020;28;20044;-60
2023/12/01 06:59:52;;;;;;;30.90;8.45;;;;;;;;;;5037726;28;20084;-60
2023/12/01 07:02:20;;;;;;;30.35;9.48;;;;;;;;;;5033949;28;20064;-59
2023/12/01 07:04:47;;;;;;;32.97;9.23;;;;;;;;;;5038347;28;20044;-61
2023/12/01 07:07:13;;;;;;;36.97;11.13;;;;;;;;;;5045889;28;20137;-59
2023/12/01 07:09:44;;;;;;;32.55;9.05;;;;;;;;;;5054211;28;20044;-59
2023/12/01 07:12:11;;;;;;;34.28;10.23;;;;;;;;;;5035883;28;20057;-59
2023/12/01 07:14:39;;;;;;;33.50;9.85;;;;;;;;;;5036521;28;20064;-60
2023/12/01 07:17:06;;;;;;;34.65;9.73;;;;;;;;;;5081316;28;20562;-59
2023/12/01 07:19:33;;;;;;;27.05;9.93;;;;;;;;;;5069755;28;20087;-61
2023/12/01 07:22:02;;;;;;;31.05;9.10;;;;;;;;;;5064698;28;20083;-60
2023/12/01 07:24:29;;;;;;;24.83;7.35;;;;;;;;;;5041372;28;20085;-60
2023/12/01 07:26:57;;;;;;;28.48;7.72;;;;;;;;;;5041468;28;20049;-60
2023/12/01 07:29:24;;;;;;;21.40;7.30;;;;;;;;;;5033952;28;20052;-62
2023/12/01 07:31:57;;;;;;;30.20;8.32;;;;;;;;;;5029424;28;20202;-61
2023/12/01 07:34:24;;;;;;;22.27;6.57;;;;;;;;;;5006241;28;20049;-60
2023/12/01 07:39:31;;;;;;;25.13;7.40;;;;;;;;;;5049304;28;20044;-62
2023/12/01 07:42:01;;;;;;;26.45;6.72;;;;;;;;;;5074549;28;20053;-62
2023/12/01 07:44:29;;;;;;;26.52;6.43;;;;;;;;;;5020223;28;20061;-61
2023/12/01 07:46:56;;;;;;;20.98;6.97;;;;;;;;;;5003682;28;20128;-61
2023/12/01 07:49:23;;;;;;;25.05;6.80;;;;;;;;;;5038907;28;20056;-61
2023/12/01 07:51:50;;;;;;;21.15;6.03;;;;;;;;;;5044689;28;20705;-62
2023/12/01 07:54:19;;;;;;;18.80;6.55;;;;;;;;;;4998602;28;20040;-62
2023/12/01 07:56:46;;;;;;;24.63;5.68;;;;;;;;;;5032221;28;20044;-61
2023/12/01 07:59:14;;;;;;;14.80;5.30;;;;;;;;;;5057520;28;20530;-61
2023/12/01 08:01:41;;;;;;;21.20;6.60;;;;;;;;;;5060716;28;20052;-61
2023/12/01 08:04:08;;;;;;;19.20;5.90;;;;;;;;;;5046267;28;20053;-61
2023/12/01 08:06:38;;;;;;;18.83;5.70;;;;;;;;;;5046517;28;20190;-61
2023/12/01 08:09:09;;;;;;;15.68;5.30;;;;;;;;;;5058254;28;20059;-61
2023/12/01 08:11:38;;;;;;;19.90;6.20;;;;;;;;;;5057547;28;20049;-62
2023/12/01 08:14:05;;;;;;;19.00;5.90;;;;;;;;;;5055040;28;20041;-60
2023/12/01 08:16:33;;;;;;;19.77;5.82;;;;;;;;;;5027383;28;20079;-60
2023/12/01 08:19:00;;;;;;;18.10;5.18;;;;;;;;;;5058831;28;20040;-61
2023/12/01 08:21:27;;;;;;;20.77;6.13;;;;;;;;;;5061428;28;20080;-62
2023/12/01 08:23:54;;;;;;;20.33;6.82;;;;;;;;;;5052777;28;20164;-61
2023/12/01 08:26:22;;;;;;;21.00;5.90;;;;;;;;;;5044074;28;20056;-61
2023/12/01 08:28:49;;;;;;;17.00;5.57;;;;;;;;;;5058886;28;20087;-61
2023/12/01 08:31:16;;;;;;;22.55;6.10;;;;;;;;;;5058295;28;20052;-61
2023/12/01 08:33:45;;;;;;;18.67;5.68;;;;;;;;;;5060034;28;20063;-61
2023/12/01 08:36:12;;;;;;;;;;;;;;;;;;5043011;28;20110;-62
2023/12/01 08:38:38;;;;;;;16.50;4.75;;;;;;;;;;5049438;28;19928;-61
2023/12/01 08:41:06;;;;;;;15.20;4.18;;;;;;;;;;5057051;28;20039;-62
2023/12/01 08:43:32;;;;;;;17.23;4.47;;;;;;;;;;5074224;28;20159;-61
2023/12/01 08:46:00;;;;;;;17.70;5.78;;;;;;;;;;5064807;28;20063;-63
2023/12/01 08:48:27;;;;;;;16.83;4.75;;;;;;;;;;5057465;28;20136;-61
2023/12/01 08:50:55;;;;;;;16.33;5.18;;;;;;;;;;5057572;28;20151;-60
2023/12/01 08:53:23;;;;;;;22.95;6.30;;;;;;;;;;5056799;28;20118;-61
2023/12/01 08:55:50;;;;;;;16.80;5.05;;;;;;;;;;5057976;28;20091;-60
2023/12/01 08:58:17;;;;;;;18.95;5.63;;;;;;;;;;5052979;28;20063;-61
2023/12/01 09:00:44;;;;;;;16.10;5.18;;;;;;;;;;5058607;28;20110;-60
2023/12/01 09:03:11;;;;;;;16.58;5.00;;;;;;;;;;5062185;28;20053;-61
2023/12/01 09:05:40;;;;;;;18.88;5.55;;;;;;;;;;5051370;28;20064;-61
2023/12/01 09:08:08;;;;;;;13.82;4.68;;;;;;;;;;5051770;28;20067;-61
2023/12/01 09:10:36;;;;;;;15.40;5.30;;;;;;;;;;5055771;28;20114;-61
2023/12/01 09:13:03;;;;;;;17.05;4.93;;;;;;;;;;5056534;28;20131;-61
2023/12/01 09:15:30;;;;;;;17.38;4.85;;;;;;;;;;5034240;28;20052;-61
2023/12/01 09:17:57;;;;;;;16.95;6.00;;;;;;;;;;5055095;28;20071;-61
2023/12/01 09:20:25;;;;;;;19.17;5.50;;;;;;;;;;5049790;28;20056;-60
2023/12/01 09:22:51;;;;;;;19.27;5.68;;;;;;;;;;5057626;28;20041;-62
2023/12/01 09:25:19;;;;;;;14.90;4.40;;;;;;;;;;5014684;28;20056;-61
2023/12/01 09:27:47;;;;;;;13.15;4.15;;;;;;;;;;5066346;28;20052;-61
2023/12/01 09:30:16;;;;;;;13.48;3.80;;;;;;;;;;5054143;28;20048;-61
2023/12/01 09:32:43;;;;;;;18.05;5.20;;;;;;;;;;5073794;28;20048;-61
2023/12/01 09:35:10;;;;;;;17.10;4.57;;;;;;;;;;5040705;28;20137;-61
2023/12/01 09:37:37;;;;;;;13.18;4.30;;;;;;;;;;5071033;28;20045;-62
2023/12/01 09:40:06;;;;;;;10.95;3.78;;;;;;;;;;5021214;28;20045;-61
2023/12/01 09:42:37;;;;;;;14.95;4.68;;;;;;;;;;5071677;28;20183;-62
2023/12/01 09:45:09;;;;;;;17.25;4.63;;;;;;;;;;5010086;28;20058;-61
2023/12/01 09:47:42;;;;;;;15.80;4.57;;;;;;;;;;5062291;28;20060;-61
2023/12/01 09:50:13;;;;;;;16.35;5.10;;;;;;;;;;5089453;28;20127;-61
2023/12/01 09:52:41;;;;;;;17.25;5.15;;;;;;;;;;5057076;28;20209;-61
2023/12/01 09:55:09;;;;;;;12.75;4.20;;;;;;;;;;5076178;27;20191;-61
2023/12/01 09:57:38;;;;;;;13.05;4.72;;;;;;;;;;5045780;28;20140;-60
2023/12/01 10:00:11;;;;;;;15.48;4.40;;;;;;;;;;5041486;28;20063;-61
2023/12/01 10:02:38;;;;;;;17.38;4.85;;;;;;;;;;5059115;28;20068;-61
2023/12/01 10:05:06;;;;;;;18.58;4.93;;;;;;;;;;5045193;28;20083;-61
2023/12/01 10:07:33;;;;;;;22.33;4.63;;;;;;;;;;5042581;28;20064;-61
2023/12/01 10:10:00;;;;;;;12.75;4.00;;;;;;;;;;5033317;28;20056;-61
2023/12/01 10:12:27;;;;;;;14.70;4.95;;;;;;;;;;5055680;28;20056;-61
2023/12/01 10:14:56;;;;;;;14.43;4.75;;;;;;;;;;5022327;28;20075;-61
2023/12/01 10:17:26;;;;;;;16.75;4.32;;;;;;;;;;5037797;28;20076;-61
2023/12/01 10:19:56;;;;;;;14.93;4.78;;;;;;;;;;5039420;28;20040;-61
2023/12/01 10:22:25;;;;;;;13.85;3.50;;;;;;;;;;5026227;28;20055;-61
2023/12/01 10:24:56;;;;;;;12.18;4.07;;;;;;;;;;5019919;28;20058;-60
2023/12/01 10:27:23;;;;;;;10.63;3.80;;;;;;;;;;5050280;28;20132;-61
2023/12/01 10:29:50;;;;;;;13.23;4.22;;;;;;;;;;5039581;28;20128;-61
2023/12/01 10:32:19;;;;;;;14.32;4.47;;;;;;;;;;5048237;28;20072;-62
2023/12/01 10:34:52;;;;;;;11.35;4.32;;;;;;;;;;4996233;28;20052;-61
2023/12/01 10:37:20;;;;;;;17.27;4.80;;;;;;;;;;5061755;28;20052;-60
2023/12/01 10:39:49;;;;;;;13.30;3.95;;;;;;;;;;5069814;28;20055;-60
2023/12/01 10:42:18;;;;;;;14.95;4.30;;;;;;;;;;5033719;28;20059;-61
2023/12/01 10:44:48;;;;;;;10.63;3.83;;;;;;;;;;5021116;28;20059;-61
2023/12/01 10:47:17;;;;;;;16.73;4.72;;;;;;;;;;5065402;28;20070;-61
2023/12/01 10:49:47;;;;;;;11.25;3.67;;;;;;;;;;5041481;28;20109;-61
2023/12/01 10:52:15;;;;;;;13.38;4.57;;;;;;;;;;5034392;28;20171;-61
2023/12/01 10:54:43;;;;;;;13.20;3.85;;;;;;;;;;5066395;28;20056;-62
2023/12/01 10:57:17;;;;;;;17.23;4.18;;;;;;;;;;5069161;28;20059;-61
2023/12/01 10:59:48;;;;;;;13.18;4.13;;;;;;;;;;5061983;28;20102;-61
2023/12/01 11:02:16;;;;;;;15.73;4.43;;;;;;;;;;5051503;28;20138;-61
2023/12/01 11:04:46;;;;;;;15.48;4.88;;;;;;;;;;5042985;28;20069;-61
2023/12/01 11:07:34;;;;;;;10.55;3.92;;;;;;;;;;5020692;28;20060;-61
2023/12/01 11:10:14;;;;;;;13.18;4.15;;;;;;;;;;5066995;28;20063;-61
2023/12/01 11:12:50;;;;;;;11.70;4.03;;;;;;;;;;5060972;28;20062;-60
2023/12/01 11:15:22;;;;;;;14.32;3.85;;;;;;;;;;5057276;27;22738;-62
2023/12/01 11:17:50;;;;;;;16.13;4.70;;;;;;;;;;5056053;28;20117;-61
2023/12/01 11:20:36;;;;;;;13.48;4.20;;;;;;;;;;5070889;28;20051;-61
2023/12/01 11:23:24;;;;;;;21.88;4.30;;;;;;;;;;5075603;28;20048;-61
2023/12/01 11:25:56;;;;;;;11.65;3.60;;;;;;;;;;5038721;28;20056;-61
2023/12/01 11:28:28;;;;;;;16.13;3.88;;;;;;;;;;5065546;28;21136;-63
2023/12/01 11:31:08;;;;;;;13.73;4.25;;;;;;;;;;5055922;28;20195;-61
2023/12/01 11:33:37;;;;;;;10.50;3.22;;;;;;;;;;5058696;28;20063;-59
2023/12/01 11:36:28;;;;;;;13.65;3.42;;;;;;;;;;5049838;28;20112;-60
2023/12/01 11:39:20;;;;;;;12.30;3.22;;;;;;;;;;5058971;28;20047;-59
2023/12/01 11:41:53;;;;;;;12.85;4.20;;;;;;;;;;5060718;28;20082;-59
2023/12/01 11:44:24;;;;;;;9.85;3.33;;;;;;;;;;5057814;28;20051;-60
2023/12/01 11:46:58;;;;;;;11.75;3.80;;;;;;;;;;5030688;28;20085;-58
2023/12/01 11:49:26;;;;;;;13.65;3.25;;;;;;;;;;5054767;28;20290;-57
2023/12/01 11:51:54;;;;;;;10.03;3.13;;;;;;;;;;5062136;28;20044;-59
2023/12/01 11:54:21;;;;;;;17.17;3.78;;;;;;;;;;5039072;28;21214;-60
2023/12/01 11:56:50;;;;;;;16.58;4.47;;;;;;;;;;5059375;28;20112;-63
2023/12/01 11:59:17;;;;;;;16.23;4.50;;;;;;;;;;5054272;28;20117;-59
2023/12/01 12:01:44;;;;;;;11.30;4.43;;;;;;;;;;5057965;28;20136;-61
2023/12/01 12:04:13;;;;;;;13.30;3.78;;;;;;;;;;5048141;28;20048;-60
2023/12/01 12:06:41;;;;;;;11.13;3.00;;;;;;;;;;5049597;28;20051;-60
2023/12/01 12:09:10;;;;;;;14.50;4.03;;;;;;;;;;5066144;28;20060;-62
2023/12/01 12:11:39;;;;;;;10.63;3.67;;;;;;;;;;5060826;28;20125;-59
2023/12/01 12:14:06;;;;;;;9.48;3.38;;;;;;;;;;5087403;28;20100;-59
2023/12/01 12:16:33;;;;;;;11.48;4.03;;;;;;;;;;5043884;28;20056;-59
2023/12/01 12:19:00;;;;;;;12.60;4.05;;;;;;;;;;5060899;28;20045;-59
2023/12/01 12:21:28;;;;;;;17.45;3.88;;;;;;;;;;5090449;28;20053;-59
2023/12/01 12:23:56;;;;;;;11.37;3.60;;;;;;;;;;5055406;28;20497;-59
2023/12/01 12:26:25;;;;;;;13.32;3.78;;;;;;;;;;5033129;28;20147;-59
2023/12/01 12:28:54;;;;;;;17.08;3.47;;;;;;;;;;5033005;28;20036;-59
2023/12/01 12:31:23;;;;;;;9.77;2.75;;;;;;;;;;5039563;28;20045;-61
2023/12/01 12:33:50;;;;;;;14.43;3.80;;;;;;;;;;5038212;28;20056;-60
2023/12/01 12:36:17;;;;;;;12.85;3.47;;;;;;;;;;5013210;28;20053;-59
2023/12/01 12:38:47;;;;;;;9.13;3.00;;;;;;;;;;5058468;28;20053;-60
2023/12/01 12:41:25;;;;;;;10.70;3.45;;;;;;;;;;5054225;28;20060;-60
2023/12/01 12:43:59;;;;;;;15.38;4.75;;;;;;;;;;5057315;28;20143;-60
2023/12/01 12:46:27;;;;;;;7.75;2.80;;;;;;;;;;5050821;28;20056;-60
2023/12/01 12:48:56;;;;;;;10.80;3.15;;;;;;;;;;5060755;28;20121;-59
2023/12/01 12:51:25;;;;;;;11.18;3.78;;;;;;;;;;5060725;28;20048;-60
2023/12/01 12:53:52;;;;;;;14.05;3.30;;;;;;;;;;5058955;28;20059;-60
2023/12/01 12:56:21;;;;;;;11.10;4.35;;;;;;;;;;5039149;27;20071;-59
2023/12/01 12:58:51;;;;;;;9.75;3.42;;;;;;;;;;5060590;28;20048;-60
2023/12/01 13:01:18;;;;;;;12.98;3.47;;;;;;;;;;5058562;28;20068;-60
2023/12/01 13:03:45;;;;;;;9.80;3.60;;;;;;;;;;5054453;28;20147;-60
2023/12/01 13:06:12;;;;;;;18.67;4.63;;;;;;;;;;5036406;28;20117;-59
2023/12/01 13:08:40;;;;;;;13.57;3.60;;;;;;;;;;5029052;28;20087;-61
2023/12/01 13:11:10;;;;;;;14.18;4.20;;;;;;;;;;5056448;28;20128;-60
2023/12/01 13:13:38;;;;;;;9.68;3.20;;;;;;;;;;5039404;28;20060;-59
2023/12/01 13:16:08;;;;;;;9.20;3.38;;;;;;;;;;5023186;28;20049;-61
2023/12/01 13:18:35;;;;;;;12.25;3.92;;;;;;;;;;5060943;28;20056;-60
2023/12/01 13:21:02;;;;;;;14.70;4.10;;;;;;;;;;5041150;28;20136;-61
2023/12/01 13:23:30;;;;;;;13.07;3.45;;;;;;;;;;5042005;28;20052;-60
2023/12/01 13:25:57;;;;;;;16.42;3.67;;;;;;;;;;5049553;28;20049;-60
2023/12/01 13:28:24;;;;;;;8.02;2.92;;;;;;;;;;5056950;28;20063;-61
2023/12/01 13:30:52;;;;;;;10.68;3.28;;;;;;;;;;5034965;28;20045;-61
2023/12/01 13:33:21;;;;;;;17.70;4.43;;;;;;;;;;5038679;28;20189;-60
2023/12/01 13:35:49;;;;;;;13.05;3.47;;;;;;;;;;5018025;28;20048;-61
2023/12/01 13:38:15;;;;;;;12.75;3.92;;;;;;;;;;5034930;28;20064;-61
2023/12/01 13:40:42;;;;;;;13.57;4.20;;;;;;;;;;5073877;28;20056;-59
2023/12/01 13:43:09;;;;;;;14.48;3.78;;;;;;;;;;5040578;28;20476;-59
2023/12/01 13:45:37;;;;;;;12.35;4.30;;;;;;;;;;5042555;28;20059;-59
2023/12/01 13:48:04;;;;;;;13.35;4.38;;;;;;;;;;5048948;28;20049;-60
2023/12/01 13:50:35;;;;;;;15.45;4.80;;;;;;;;;;5044804;28;20114;-59
2023/12/01 13:53:02;;;;;;;15.70;4.28;;;;;;;;;;5039528;28;20181;-59
2023/12/01 13:55:29;;;;;;;18.35;4.28;;;;;;;;;;5050164;28;20059;-59
2023/12/01 13:57:56;;;;;;;13.65;4.60;;;;;;;;;;5036872;28;20056;-59
2023/12/01 14:00:23;;;;;;;12.80;4.22;;;;;;;;;;5068683;28;20110;-58
2023/12/01 14:02:50;;;;;;;16.35;5.05;;;;;;;;;;5037672;28;20056;-59
2023/12/01 14:05:18;;;;;;;15.25;4.38;;;;;;;;;;5037447;28;20116;-60
2023/12/01 14:07:49;;;;;;;14.82;4.28;;;;;;;;;;5031196;28;20125;-59
2023/12/01 14:10:18;;;;;;;17.40;4.22;;;;;;;;;;5028752;28;20069;-59
2023/12/01 14:12:44;;;;;;;;;;;;;;;;;;5043120;28;20064;-59
2023/12/01 14:15:11;;;;;;;14.90;4.05;;;;;;;;;;5025239;28;19928;-60
2023/12/01 14:17:39;;;;;;;12.60;3.97;;;;;;;;;;5051152;28;20053;-60
2023/12/01 14:20:09;;;;;;;12.20;3.30;;;;;;;;;;5030964;28;20080;-60
2023/12/01 14:22:37;;;;;;;14.50;4.63;;;;;;;;;;5022716;28;20306;-59
2023/12/01 14:25:17;;;;;;;14.93;4.10;;;;;;;;;;5007063;28;20060;-59
2023/12/01 14:27:46;;;;;;;10.27;3.42;;;;;;;;;;5025132;28;20207;-59
2023/12/01 14:30:14;;;;;;;12.30;4.00;;;;;;;;;;5028063;28;20149;-58
2023/12/01 14:32:41;;;;;;;14.63;4.03;;;;;;;;;;5036841;28;20060;-58
2023/12/01 14:35:09;;;;;;;16.67;4.57;;;;;;;;;;5027167;28;20234;-59
2023/12/01 14:37:36;;;;;;;12.07;3.53;;;;;;;;;;5032680;28;20055;-59
2023/12/01 14:40:09;;;;;;;10.77;4.20;;;;;;;;;;5029570;28;20056;-60
2023/12/01 14:42:37;;;;;;;15.55;4.47;;;;;;;;;;5066967;28;20128;-59
2023/12/01 14:45:07;;;;;;;13.73;4.07;;;;;;;;;;5025835;28;20119;-59